메인 페이지
METAR-TAF:

METAR-TAF

공항 :

Manta, 에콰도르

위도: 00-57S, 경도: 080-41W, 고도: 13m

현재 날씨관측

예보는 1 시간 3분 전, 18:00시(UTC)에 발표되었습니다.
북북서6kt서북서풍과 풍을 오가는
온도 31°C
습도 66%
기압 1009 hPa
시정 10km 이상
고도 2600ft 상공 구름 많음

METAR: SEMT 171800Z 33006KT 300V360 9999 BKN026 31/24 Q1009 RMK A2981

시각: 14:03 (19:03 UTC)

예보

예보는 2 시간 13분 전, 16:50시(UTC)에 발표되었습니다.
예보 대상 시간: 17일 18시부터 18일 18시까지 (UTC)
서북서8kt
시정 10km 이상
고도 2300ft 상공 구름 많음
일시적
17일 20시부터 17일 23시까지 (UTC)
고도 2600ft 상공 구름 보통
고도 10000ft 상공 구름 많음
전환 중
17일 23시부터 18일 01시까지 (UTC)
6kt
전환 중
18일 13시부터 18일 15시까지 (UTC)
고도 2300ft 상공 구름 보통
고도 10000ft 상공 구름 많음

TAF: SEMT 171650Z 1718/1818 29008KT 9999 BKN023 TEMPO 1720/1723 SCT026 BKN100 BECMG 1723/1801 19006KT BECMG 1813/1815 SCT023 BKN100 TX30/1720Z TN26/1810Z

4,000개 이상의 공항 관측 자료 및 예보 (METAR 및 TAF 보고).

지도상에서 검색 가능한 기상관측소가 노란 점과 빨간 점으로 표시되어 있습니다.

기상관측소 명을 보려면 표시 위로 마우스를 이동하세요.

날씨 관측과 예보를 보려면 클릭하세요.

지도 변경 : 확대하려면 엑스 표시가 있는 녹색 버튼, 축소하려면 빼기 표시가 있는 녹색 버튼, 다음 페이지의 지도를 보려면 녹색 화살표를 클릭하세요.


METAR-TAF: